• Join FlightAware (Why Join?)
  • Login
  • US Flag 
10:15AM EST


 

Airport Tracker/Info


-or-


 

Live Flight TrackerFlight Track Log ✈ FIN666 ✈ 06-May-2014 ✈ EKCH / CPH - EFHK / HEL

Flight Track Log - Related Links

Times and Time Zones

All times are in EDT time to prevent confusion due to time zone crossing. See the FIN666 flight status page for this flight to view local times or setup timezone preferences in your user account.

Time Position Orientation Groundspeed Altitude Reporting Facility
EDT Latitude Longitude Course Direction KTS MPH feet Rate Location/Type
07:45AM 57.0465 15.7738 49° Northeast  Level Estimated
07:46AM 57.1195 15.9444 52° Northeast  Level Estimated
07:47AM 57.1922 16.1157 52° Northeast  Level Estimated
07:48AM 57.2647 16.2877 52° Northeast  Level Estimated
07:49AM 57.3370 16.4604 52° Northeast  Level Estimated
07:50AM 57.4090 16.6338 52° Northeast  Level Estimated
07:51AM 57.4808 16.8078 52° Northeast  Level Estimated
07:52AM 57.5523 16.9825 53° Northeast  Level Estimated
07:53AM 57.6236 17.1579 53° Northeast  Level Estimated
07:54AM 57.6947 17.3340 53° Northeast  Level Estimated
07:55AM 57.7655 17.5108 53° Northeast  Level Estimated
07:56AM 57.8361 17.6883 53° Northeast  Level Estimated
07:57AM 57.9064 17.8664 53° Northeast  Level Estimated
07:58AM 57.9765 18.0453 53° Northeast  Level Estimated
07:59AM 58.0463 18.2249 54° Northeast  Level Estimated
08:00AM 58.1159 18.4052 54° Northeast  Level Estimated
08:01AM 58.1852 18.5861 54° Northeast  Level Estimated
08:02AM 58.2542 18.7678 54° Northeast  Level Estimated
08:03AM 58.3230 18.9502 54° Northeast  Level Estimated
08:04AM 58.3915 19.1333 54° Northeast  Level Estimated
08:05AM 58.4598 19.3171 55° Northeast  Level Estimated
08:06AM 58.5278 19.5017 55° Northeast  Level Estimated
08:07AM 58.5956 19.6869 55° Northeast  Level Estimated
08:08AM 58.6630 19.8729 55° Northeast  Level Estimated
08:09AM 58.7303 20.0595 55° Northeast  Level Estimated
08:10AM 58.7972 20.2469 55° Northeast  Level Estimated
08:11AM 58.8638 20.4351 56° Northeast  Level Estimated
08:12AM 58.9302 20.6239 56° Northeast  Level Estimated
08:13AM 58.9963 20.8135 56° Northeast  Level Estimated
08:14AM 59.0622 21.0038 56° Northeast  Level Estimated
08:15AM 59.1277 21.1948 56° Northeast  Level Estimated
08:16AM 59.1930 21.3866 56° Northeast  Level Estimated
08:17AM 59.2580 21.5791 56° Northeast  Level Estimated
08:18AM 59.3227 21.7723 57° Northeast  Level Estimated
08:19AM 59.3871 21.9662 57° Northeast  Level Estimated
08:20AM 59.4512 22.1609 57° Northeast  Level Estimated
08:21AM 59.5151 22.3564 57° Northeast  Level Estimated
08:22AM 59.5786 22.5526 57° Northeast  Level Estimated
08:23AM 59.6419 22.7495 58° Northeast  Level Estimated
08:24AM 59.7048 22.9471 58° Northeast  Level Estimated
08:25AM 59.7675 23.1455 58° Northeast  Level Estimated
08:26AM 59.8298 23.3447 58° Northeast  Level Estimated
08:27AM 59.8919 23.5446 58° Northeast  Level Estimated
08:28AM 59.9536 23.7452 58° Northeast  Level Estimated
08:29AM 60.0151 23.9466 59° Northeast  Level Estimated
08:30AM 60.0762 24.1488 59° Northeast  Level Estimated
08:31AM 60.1370 24.3516 59° Northeast  Level Estimated
08:32AM 60.1976 24.5553 59° Northeast  Level Estimated
08:33AM 60.2578 24.7596 59° Northeast  Level Estimated
08:34AM 60.3172 24.9633 59° Northeast  Level Estimated
08:35AM 60.3172 24.9633 North  Level Estimated
08:36AM 60.3172 24.9633 North  Level Estimated
08:37AM 60.3172 24.9633 North  Level Estimated
08:38AM 60.3172 24.9633 North  Level Estimated
08:39AM 60.3172 24.9633 North  Level Estimated
08:40AM 60.3172 24.9633 North  Level Estimated
08:41AM 60.3172 24.9633 North  Level Estimated
08:42AM 60.3172 24.9633 North  Level Estimated
08:43AM 60.3172 24.9633 North  Level Estimated
08:44AM 60.3172 24.9633 North  Level Estimated
08:45AM 60.3172 24.9633 North  Level Estimated
08:46AM 60.3172 24.9633 North  Level Estimated
08:47AM 60.3172 24.9633 North  Level Estimated
08:48AM 60.3172 24.9633 North  Level Estimated
08:49AM 60.3172 24.9633 North  Level Estimated
08:50AM 60.3172 24.9633 North  Level Estimated